sensor_id;sensor_type;location;lat;lon;timestamp;P1;durP1;ratioP1;P2;durP2;ratioP2
80623;SDS011;70269;44.768;9.600;2024-01-30T00:01:24;3.22;;;2.15;;
80623;SDS011;70269;44.768;9.600;2024-01-30T00:03:50;6.97;;;3.20;;
80623;SDS011;70269;44.768;9.600;2024-01-30T00:06:18;6.22;;;2.15;;
80623;SDS011;70269;44.768;9.600;2024-01-30T00:08:45;3.92;;;1.85;;
80623;SDS011;70269;44.768;9.600;2024-01-30T00:11:14;4.13;;;1.25;;
80623;SDS011;70269;44.768;9.600;2024-01-30T00:13:40;3.40;;;1.58;;
80623;SDS011;70269;44.768;9.600;2024-01-30T00:16:06;5.90;;;2.78;;
80623;SDS011;70269;44.768;9.600;2024-01-30T00:18:32;8.75;;;3.33;;
80623;SDS011;70269;44.768;9.600;2024-01-30T00:20:57;4.63;;;2.20;;
80623;SDS011;70269;44.768;9.600;2024-01-30T00:23:23;4.05;;;1.83;;
80623;SDS011;70269;44.768;9.600;2024-01-30T00:25:48;3.67;;;1.80;;
80623;SDS011;70269;44.768;9.600;2024-01-30T00:28:14;7.72;;;2.97;;
80623;SDS011;70269;44.768;9.600;2024-01-30T00:30:39;2.28;;;1.02;;
80623;SDS011;70269;44.768;9.600;2024-01-30T00:33:05;3.08;;;2.05;;
80623;SDS011;70269;44.768;9.600;2024-01-30T00:35:30;7.93;;;2.58;;
80623;SDS011;70269;44.768;9.600;2024-01-30T00:37:56;4.78;;;2.40;;
80623;SDS011;70269;44.768;9.600;2024-01-30T00:40:22;6.03;;;2.60;;
80623;SDS011;70269;44.768;9.600;2024-01-30T00:42:48;5.53;;;2.17;;
80623;SDS011;70269;44.768;9.600;2024-01-30T00:45:14;2.63;;;1.52;;
80623;SDS011;70269;44.768;9.600;2024-01-30T00:47:40;7.85;;;1.50;;
80623;SDS011;70269;44.768;9.600;2024-01-30T00:50:06;5.15;;;2.33;;
80623;SDS011;70269;44.768;9.600;2024-01-30T00:52:31;4.60;;;1.50;;
80623;SDS011;70269;44.768;9.600;2024-01-30T00:54:58;6.40;;;2.03;;
80623;SDS011;70269;44.768;9.600;2024-01-30T00:57:24;3.92;;;1.88;;
80623;SDS011;70269;44.768;9.600;2024-01-30T00:59:50;4.40;;;1.52;;
80623;SDS011;70269;44.768;9.600;2024-01-30T01:02:15;4.72;;;1.75;;
80623;SDS011;70269;44.768;9.600;2024-01-30T01:04:42;3.47;;;1.67;;
80623;SDS011;70269;44.768;9.600;2024-01-30T01:07:09;4.10;;;1.88;;
80623;SDS011;70269;44.768;9.600;2024-01-30T01:09:35;5.03;;;1.63;;
80623;SDS011;70269;44.768;9.600;2024-01-30T01:12:01;3.05;;;1.73;;
80623;SDS011;70269;44.768;9.600;2024-01-30T01:14:27;6.03;;;2.30;;
80623;SDS011;70269;44.768;9.600;2024-01-30T01:16:52;5.15;;;2.03;;
80623;SDS011;70269;44.768;9.600;2024-01-30T01:19:18;4.70;;;2.38;;
80623;SDS011;70269;44.768;9.600;2024-01-30T01:21:43;3.33;;;1.45;;
80623;SDS011;70269;44.768;9.600;2024-01-30T01:24:09;6.38;;;2.10;;
80623;SDS011;70269;44.768;9.600;2024-01-30T01:26:34;3.20;;;1.27;;
80623;SDS011;70269;44.768;9.600;2024-01-30T01:29:00;4.18;;;1.95;;
80623;SDS011;70269;44.768;9.600;2024-01-30T01:31:25;5.68;;;2.63;;
80623;SDS011;70269;44.768;9.600;2024-01-30T01:33:54;7.93;;;1.98;;
80623;SDS011;70269;44.768;9.600;2024-01-30T01:36:20;6.40;;;2.15;;
80623;SDS011;70269;44.768;9.600;2024-01-30T01:38:46;5.57;;;3.08;;
80623;SDS011;70269;44.768;9.600;2024-01-30T01:41:11;9.07;;;2.60;;
80623;SDS011;70269;44.768;9.600;2024-01-30T01:43:37;6.70;;;2.10;;
80623;SDS011;70269;44.768;9.600;2024-01-30T01:46:04;3.30;;;2.00;;
80623;SDS011;70269;44.768;9.600;2024-01-30T01:48:31;6.70;;;2.45;;
80623;SDS011;70269;44.768;9.600;2024-01-30T01:50:58;3.42;;;1.10;;
80623;SDS011;70269;44.768;9.600;2024-01-30T01:53:24;2.28;;;1.38;;
80623;SDS011;70269;44.768;9.600;2024-01-30T01:55:50;6.75;;;2.05;;
80623;SDS011;70269;44.768;9.600;2024-01-30T01:58:18;3.22;;;1.13;;
80623;SDS011;70269;44.768;9.600;2024-01-30T02:00:45;5.25;;;2.53;;
80623;SDS011;70269;44.768;9.600;2024-01-30T02:03:11;4.72;;;1.67;;
80623;SDS011;70269;44.768;9.600;2024-01-30T02:05:39;5.25;;;2.58;;
80623;SDS011;70269;44.768;9.600;2024-01-30T02:08:06;3.80;;;1.52;;
80623;SDS011;70269;44.768;9.600;2024-01-30T02:10:33;2.25;;;1.23;;
80623;SDS011;70269;44.768;9.600;2024-01-30T02:12:59;6.53;;;2.38;;
80623;SDS011;70269;44.768;9.600;2024-01-30T02:15:25;9.25;;;2.72;;
80623;SDS011;70269;44.768;9.600;2024-01-30T02:17:50;3.40;;;1.55;;
80623;SDS011;70269;44.768;9.600;2024-01-30T02:20:16;4.60;;;1.55;;
80623;SDS011;70269;44.768;9.600;2024-01-30T02:22:42;6.60;;;1.95;;
80623;SDS011;70269;44.768;9.600;2024-01-30T02:25:08;3.05;;;1.50;;
80623;SDS011;70269;44.768;9.600;2024-01-30T02:27:34;4.15;;;1.52;;
80623;SDS011;70269;44.768;9.600;2024-01-30T02:29:59;4.85;;;1.73;;
80623;SDS011;70269;44.768;9.600;2024-01-30T02:32:25;4.75;;;1.88;;
80623;SDS011;70269;44.768;9.600;2024-01-30T02:34:50;4.35;;;1.63;;
80623;SDS011;70269;44.768;9.600;2024-01-30T02:37:16;3.65;;;1.48;;
80623;SDS011;70269;44.768;9.600;2024-01-30T02:39:42;6.05;;;2.63;;
80623;SDS011;70269;44.768;9.600;2024-01-30T02:42:07;4.30;;;1.85;;
80623;SDS011;70269;44.768;9.600;2024-01-30T02:44:33;7.70;;;2.22;;
80623;SDS011;70269;44.768;9.600;2024-01-30T02:46:58;3.70;;;1.73;;
80623;SDS011;70269;44.768;9.600;2024-01-30T02:49:24;5.53;;;2.45;;
80623;SDS011;70269;44.768;9.600;2024-01-30T02:51:49;3.40;;;2.13;;
80623;SDS011;70269;44.768;9.600;2024-01-30T02:54:16;2.67;;;1.70;;
80623;SDS011;70269;44.768;9.600;2024-01-30T02:56:41;2.30;;;0.88;;
80623;SDS011;70269;44.768;9.600;2024-01-30T02:59:07;3.35;;;1.58;;
80623;SDS011;70269;44.768;9.600;2024-01-30T03:01:32;3.58;;;1.90;;
80623;SDS011;70269;44.768;9.600;2024-01-30T03:03:58;4.80;;;1.63;;
80623;SDS011;70269;44.768;9.600;2024-01-30T03:06:23;2.78;;;1.38;;
80623;SDS011;70269;44.768;9.600;2024-01-30T03:08:49;5.30;;;1.60;;
80623;SDS011;70269;44.768;9.600;2024-01-30T03:11:15;2.33;;;1.20;;
80623;SDS011;70269;44.768;9.600;2024-01-30T03:13:40;5.18;;;1.65;;
80623;SDS011;70269;44.768;9.600;2024-01-30T03:16:06;2.33;;;1.40;;
80623;SDS011;70269;44.768;9.600;2024-01-30T03:18:33;3.03;;;1.73;;
80623;SDS011;70269;44.768;9.600;2024-01-30T03:20:59;3.47;;;1.45;;
80623;SDS011;70269;44.768;9.600;2024-01-30T03:23:24;2.55;;;1.55;;
80623;SDS011;70269;44.768;9.600;2024-01-30T03:25:50;5.10;;;2.00;;
80623;SDS011;70269;44.768;9.600;2024-01-30T03:28:15;5.00;;;1.80;;
80623;SDS011;70269;44.768;9.600;2024-01-30T03:30:41;2.70;;;0.98;;
80623;SDS011;70269;44.768;9.600;2024-01-30T03:33:06;2.88;;;1.70;;
80623;SDS011;70269;44.768;9.600;2024-01-30T03:35:32;4.68;;;1.70;;
80623;SDS011;70269;44.768;9.600;2024-01-30T03:37:58;2.85;;;1.20;;
80623;SDS011;70269;44.768;9.600;2024-01-30T03:40:23;4.28;;;1.70;;
80623;SDS011;70269;44.768;9.600;2024-01-30T03:42:49;3.95;;;1.67;;
80623;SDS011;70269;44.768;9.600;2024-01-30T03:45:14;7.93;;;1.70;;
80623;SDS011;70269;44.768;9.600;2024-01-30T03:47:42;3.72;;;1.70;;
80623;SDS011;70269;44.768;9.600;2024-01-30T03:50:08;3.00;;;1.67;;
80623;SDS011;70269;44.768;9.600;2024-01-30T03:52:34;3.58;;;1.98;;
80623;SDS011;70269;44.768;9.600;2024-01-30T03:55:00;3.15;;;1.02;;
80623;SDS011;70269;44.768;9.600;2024-01-30T03:57:25;4.25;;;1.40;;
80623;SDS011;70269;44.768;9.600;2024-01-30T03:59:51;3.58;;;1.60;;
80623;SDS011;70269;44.768;9.600;2024-01-30T04:02:17;3.35;;;1.80;;
80623;SDS011;70269;44.768;9.600;2024-01-30T04:04:43;2.72;;;1.42;;
80623;SDS011;70269;44.768;9.600;2024-01-30T04:07:08;3.65;;;1.50;;
80623;SDS011;70269;44.768;9.600;2024-01-30T04:09:34;4.68;;;1.38;;
80623;SDS011;70269;44.768;9.600;2024-01-30T04:11:59;4.53;;;1.58;;
80623;SDS011;70269;44.768;9.600;2024-01-30T04:16:54;9.38;;;1.27;;
80623;SDS011;70269;44.768;9.600;2024-01-30T04:19:19;2.13;;;1.15;;
80623;SDS011;70269;44.768;9.600;2024-01-30T04:21:45;2.83;;;0.95;;
80623;SDS011;70269;44.768;9.600;2024-01-30T04:24:11;3.58;;;1.60;;
80623;SDS011;70269;44.768;9.600;2024-01-30T04:26:36;3.25;;;1.60;;
80623;SDS011;70269;44.768;9.600;2024-01-30T04:29:02;4.43;;;1.80;;
80623;SDS011;70269;44.768;9.600;2024-01-30T04:31:28;4.85;;;1.25;;
80623;SDS011;70269;44.768;9.600;2024-01-30T04:33:53;1.83;;;0.95;;
80623;SDS011;70269;44.768;9.600;2024-01-30T04:36:19;2.88;;;1.15;;
80623;SDS011;70269;44.768;9.600;2024-01-30T04:38:44;3.80;;;1.67;;
80623;SDS011;70269;44.768;9.600;2024-01-30T04:41:10;4.28;;;1.40;;
80623;SDS011;70269;44.768;9.600;2024-01-30T04:43:35;3.17;;;1.58;;
80623;SDS011;70269;44.768;9.600;2024-01-30T04:46:01;4.43;;;1.67;;
80623;SDS011;70269;44.768;9.600;2024-01-30T04:48:27;3.85;;;1.23;;
80623;SDS011;70269;44.768;9.600;2024-01-30T04:50:52;3.40;;;1.00;;
80623;SDS011;70269;44.768;9.600;2024-01-30T04:53:18;2.13;;;0.65;;
80623;SDS011;70269;44.768;9.600;2024-01-30T04:55:44;2.22;;;1.30;;
80623;SDS011;70269;44.768;9.600;2024-01-30T04:58:09;2.47;;;1.13;;
80623;SDS011;70269;44.768;9.600;2024-01-30T05:00:35;2.30;;;1.05;;
80623;SDS011;70269;44.768;9.600;2024-01-30T05:03:01;4.47;;;1.20;;
80623;SDS011;70269;44.768;9.600;2024-01-30T05:05:26;4.55;;;1.27;;
80623;SDS011;70269;44.768;9.600;2024-01-30T05:07:52;1.40;;;0.88;;
80623;SDS011;70269;44.768;9.600;2024-01-30T05:10:17;2.95;;;1.60;;
80623;SDS011;70269;44.768;9.600;2024-01-30T05:12:43;2.42;;;0.93;;
80623;SDS011;70269;44.768;9.600;2024-01-30T05:15:09;3.88;;;1.38;;
80623;SDS011;70269;44.768;9.600;2024-01-30T05:17:34;2.00;;;1.42;;
80623;SDS011;70269;44.768;9.600;2024-01-30T05:20:00;3.17;;;1.27;;
80623;SDS011;70269;44.768;9.600;2024-01-30T05:22:26;4.15;;;1.25;;
80623;SDS011;70269;44.768;9.600;2024-01-30T05:24:51;2.78;;;1.50;;
80623;SDS011;70269;44.768;9.600;2024-01-30T05:27:17;8.23;;;1.17;;
80623;SDS011;70269;44.768;9.600;2024-01-30T05:29:42;1.83;;;0.80;;
80623;SDS011;70269;44.768;9.600;2024-01-30T05:32:08;1.85;;;1.00;;
80623;SDS011;70269;44.768;9.600;2024-01-30T05:34:35;1.85;;;1.02;;
80623;SDS011;70269;44.768;9.600;2024-01-30T05:37:01;5.18;;;1.75;;
80623;SDS011;70269;44.768;9.600;2024-01-30T05:39:26;4.07;;;1.25;;
80623;SDS011;70269;44.768;9.600;2024-01-30T05:41:52;4.07;;;1.58;;
80623;SDS011;70269;44.768;9.600;2024-01-30T05:44:18;2.00;;;0.90;;
80623;SDS011;70269;44.768;9.600;2024-01-30T05:46:43;2.20;;;1.27;;
80623;SDS011;70269;44.768;9.600;2024-01-30T05:49:09;3.40;;;1.35;;
80623;SDS011;70269;44.768;9.600;2024-01-30T05:51:34;3.22;;;1.15;;
80623;SDS011;70269;44.768;9.600;2024-01-30T05:54:00;2.08;;;0.93;;
80623;SDS011;70269;44.768;9.600;2024-01-30T05:56:28;4.43;;;2.05;;
80623;SDS011;70269;44.768;9.600;2024-01-30T05:58:54;2.33;;;1.15;;
80623;SDS011;70269;44.768;9.600;2024-01-30T06:01:20;3.45;;;0.98;;
80623;SDS011;70269;44.768;9.600;2024-01-30T06:03:46;2.17;;;1.05;;
80623;SDS011;70269;44.768;9.600;2024-01-30T06:06:11;4.15;;;1.77;;
80623;SDS011;70269;44.768;9.600;2024-01-30T06:08:37;3.38;;;1.38;;
80623;SDS011;70269;44.768;9.600;2024-01-30T06:11:02;4.20;;;1.40;;
80623;SDS011;70269;44.768;9.600;2024-01-30T06:13:28;5.55;;;1.80;;
80623;SDS011;70269;44.768;9.600;2024-01-30T06:15:57;4.25;;;2.22;;
80623;SDS011;70269;44.768;9.600;2024-01-30T06:18:22;4.13;;;1.67;;
80623;SDS011;70269;44.768;9.600;2024-01-30T06:20:48;4.40;;;2.42;;
80623;SDS011;70269;44.768;9.600;2024-01-30T06:23:14;13.75;;;2.65;;
80623;SDS011;70269;44.768;9.600;2024-01-30T06:25:40;3.90;;;2.45;;
80623;SDS011;70269;44.768;9.600;2024-01-30T06:28:05;4.40;;;2.33;;
80623;SDS011;70269;44.768;9.600;2024-01-30T06:30:31;3.55;;;1.10;;
80623;SDS011;70269;44.768;9.600;2024-01-30T06:32:57;4.85;;;1.33;;
80623;SDS011;70269;44.768;9.600;2024-01-30T06:35:22;7.05;;;2.17;;
80623;SDS011;70269;44.768;9.600;2024-01-30T06:37:48;1.58;;;0.82;;
80623;SDS011;70269;44.768;9.600;2024-01-30T06:40:13;2.60;;;1.63;;
80623;SDS011;70269;44.768;9.600;2024-01-30T06:42:39;3.47;;;1.38;;
80623;SDS011;70269;44.768;9.600;2024-01-30T06:45:05;5.13;;;1.17;;
80623;SDS011;70269;44.768;9.600;2024-01-30T06:47:31;1.15;;;0.63;;
80623;SDS011;70269;44.768;9.600;2024-01-30T06:49:57;4.20;;;1.15;;
80623;SDS011;70269;44.768;9.600;2024-01-30T06:52:22;2.67;;;1.35;;
80623;SDS011;70269;44.768;9.600;2024-01-30T06:54:48;2.90;;;1.50;;
80623;SDS011;70269;44.768;9.600;2024-01-30T06:57:14;3.67;;;1.30;;
80623;SDS011;70269;44.768;9.600;2024-01-30T06:59:39;4.88;;;0.90;;
80623;SDS011;70269;44.768;9.600;2024-01-30T07:02:12;6.53;;;1.70;;
80623;SDS011;70269;44.768;9.600;2024-01-30T07:04:37;3.22;;;1.40;;
80623;SDS011;70269;44.768;9.600;2024-01-30T07:07:04;3.90;;;2.08;;
80623;SDS011;70269;44.768;9.600;2024-01-30T07:09:31;4.03;;;1.20;;
80623;SDS011;70269;44.768;9.600;2024-01-30T07:11:56;2.53;;;1.20;;
80623;SDS011;70269;44.768;9.600;2024-01-30T07:14:23;2.50;;;0.63;;
80623;SDS011;70269;44.768;9.600;2024-01-30T07:16:49;2.13;;;1.00;;
80623;SDS011;70269;44.768;9.600;2024-01-30T07:19:15;3.92;;;1.20;;
80623;SDS011;70269;44.768;9.600;2024-01-30T07:21:41;2.78;;;1.52;;
80623;SDS011;70269;44.768;9.600;2024-01-30T07:24:07;2.95;;;1.33;;
80623;SDS011;70269;44.768;9.600;2024-01-30T07:26:33;1.88;;;1.05;;
80623;SDS011;70269;44.768;9.600;2024-01-30T07:28:58;2.38;;;1.30;;
80623;SDS011;70269;44.768;9.600;2024-01-30T07:31:24;2.22;;;0.75;;
80623;SDS011;70269;44.768;9.600;2024-01-30T07:33:50;2.97;;;1.15;;
80623;SDS011;70269;44.768;9.600;2024-01-30T07:36:15;2.88;;;1.85;;
80623;SDS011;70269;44.768;9.600;2024-01-30T07:38:41;2.47;;;1.08;;
80623;SDS011;70269;44.768;9.600;2024-01-30T07:41:06;3.55;;;1.33;;
80623;SDS011;70269;44.768;9.600;2024-01-30T07:43:32;2.58;;;1.20;;
80623;SDS011;70269;44.768;9.600;2024-01-30T07:45:58;2.47;;;1.00;;
80623;SDS011;70269;44.768;9.600;2024-01-30T07:48:26;1.83;;;0.80;;
80623;SDS011;70269;44.768;9.600;2024-01-30T07:50:51;3.08;;;1.50;;
80623;SDS011;70269;44.768;9.600;2024-01-30T07:53:18;1.33;;;0.68;;
80623;SDS011;70269;44.768;9.600;2024-01-30T07:55:44;3.58;;;1.20;;
80623;SDS011;70269;44.768;9.600;2024-01-30T07:58:12;4.18;;;0.93;;
80623;SDS011;70269;44.768;9.600;2024-01-30T08:00:37;1.33;;;0.63;;
80623;SDS011;70269;44.768;9.600;2024-01-30T08:03:03;2.70;;;1.33;;
80623;SDS011;70269;44.768;9.600;2024-01-30T08:05:29;5.05;;;1.80;;
80623;SDS011;70269;44.768;9.600;2024-01-30T08:07:55;2.17;;;1.08;;
80623;SDS011;70269;44.768;9.600;2024-01-30T08:10:20;2.60;;;1.10;;
80623;SDS011;70269;44.768;9.600;2024-01-30T08:12:46;2.67;;;1.05;;
80623;SDS011;70269;44.768;9.600;2024-01-30T08:15:12;2.00;;;1.00;;
80623;SDS011;70269;44.768;9.600;2024-01-30T08:17:38;4.18;;;1.30;;
80623;SDS011;70269;44.768;9.600;2024-01-30T08:20:04;3.50;;;1.00;;
80623;SDS011;70269;44.768;9.600;2024-01-30T08:22:30;2.67;;;1.15;;
80623;SDS011;70269;44.768;9.600;2024-01-30T08:24:56;2.60;;;0.93;;
80623;SDS011;70269;44.768;9.600;2024-01-30T08:27:22;3.63;;;1.25;;
80623;SDS011;70269;44.768;9.600;2024-01-30T08:29:47;2.20;;;1.00;;
80623;SDS011;70269;44.768;9.600;2024-01-30T08:32:13;5.63;;;1.08;;
80623;SDS011;70269;44.768;9.600;2024-01-30T08:34:38;2.53;;;1.00;;
80623;SDS011;70269;44.768;9.600;2024-01-30T08:37:04;2.97;;;1.33;;
80623;SDS011;70269;44.768;9.600;2024-01-30T08:39:30;1.92;;;0.90;;
80623;SDS011;70269;44.768;9.600;2024-01-30T09:07:10;4.85;;;1.88;;
80623;SDS011;70269;44.768;9.600;2024-01-30T09:09:37;3.75;;;1.95;;
80623;SDS011;70269;44.768;9.600;2024-01-30T09:12:04;5.63;;;1.58;;
80623;SDS011;70269;44.768;9.600;2024-01-30T09:14:33;2.75;;;1.38;;
80623;SDS011;70269;44.768;9.600;2024-01-30T09:16:58;3.67;;;1.50;;
80623;SDS011;70269;44.768;9.600;2024-01-30T09:19:24;3.30;;;1.45;;
80623;SDS011;70269;44.768;9.600;2024-01-30T09:21:49;3.10;;;1.25;;
80623;SDS011;70269;44.768;9.600;2024-01-30T09:24:15;4.95;;;1.35;;
80623;SDS011;70269;44.768;9.600;2024-01-30T09:26:40;4.57;;;1.38;;
80623;SDS011;70269;44.768;9.600;2024-01-30T09:29:07;3.60;;;1.50;;
80623;SDS011;70269;44.768;9.600;2024-01-30T09:31:32;3.20;;;1.50;;
80623;SDS011;70269;44.768;9.600;2024-01-30T09:33:58;3.38;;;1.20;;
80623;SDS011;70269;44.768;9.600;2024-01-30T09:36:23;5.10;;;1.25;;
80623;SDS011;70269;44.768;9.600;2024-01-30T09:38:49;2.47;;;1.35;;
80623;SDS011;70269;44.768;9.600;2024-01-30T09:41:15;2.60;;;1.23;;
80623;SDS011;70269;44.768;9.600;2024-01-30T09:43:45;3.80;;;1.30;;
80623;SDS011;70269;44.768;9.600;2024-01-30T09:46:16;3.22;;;1.33;;
80623;SDS011;70269;44.768;9.600;2024-01-30T09:48:44;4.10;;;1.75;;
80623;SDS011;70269;44.768;9.600;2024-01-30T09:51:12;3.42;;;1.30;;
80623;SDS011;70269;44.768;9.600;2024-01-30T09:53:39;4.30;;;1.75;;
80623;SDS011;70269;44.768;9.600;2024-01-30T09:56:08;5.70;;;1.80;;
80623;SDS011;70269;44.768;9.600;2024-01-30T09:58:33;4.10;;;1.35;;
80623;SDS011;70269;44.768;9.600;2024-01-30T10:00:59;2.72;;;1.42;;
80623;SDS011;70269;44.768;9.600;2024-01-30T10:03:25;5.20;;;1.65;;
80623;SDS011;70269;44.768;9.600;2024-01-30T10:05:52;4.70;;;1.50;;
80623;SDS011;70269;44.768;9.600;2024-01-30T10:08:18;2.63;;;1.35;;
80623;SDS011;70269;44.768;9.600;2024-01-30T10:10:47;4.50;;;2.10;;
80623;SDS011;70269;44.768;9.600;2024-01-30T10:13:15;5.85;;;2.35;;
80623;SDS011;70269;44.768;9.600;2024-01-30T10:15:41;7.00;;;2.63;;
80623;SDS011;70269;44.768;9.600;2024-01-30T10:18:08;4.90;;;2.20;;
80623;SDS011;70269;44.768;9.600;2024-01-30T10:20:35;2.95;;;1.45;;
80623;SDS011;70269;44.768;9.600;2024-01-30T10:23:01;4.68;;;2.00;;
80623;SDS011;70269;44.768;9.600;2024-01-30T10:25:27;4.75;;;2.15;;
80623;SDS011;70269;44.768;9.600;2024-01-30T10:27:53;4.05;;;2.00;;
80623;SDS011;70269;44.768;9.600;2024-01-30T10:30:20;3.80;;;1.40;;
80623;SDS011;70269;44.768;9.600;2024-01-30T10:32:47;5.35;;;2.53;;
80623;SDS011;70269;44.768;9.600;2024-01-30T10:35:13;6.30;;;1.50;;
80623;SDS011;70269;44.768;9.600;2024-01-30T10:37:38;3.92;;;1.75;;
80623;SDS011;70269;44.768;9.600;2024-01-30T10:40:04;4.88;;;2.15;;
80623;SDS011;70269;44.768;9.600;2024-01-30T10:42:33;5.18;;;2.20;;
80623;SDS011;70269;44.768;9.600;2024-01-30T10:45:11;4.32;;;2.08;;
80623;SDS011;70269;44.768;9.600;2024-01-30T10:47:39;4.22;;;1.80;;
80623;SDS011;70269;44.768;9.600;2024-01-30T10:50:07;7.72;;;2.60;;
80623;SDS011;70269;44.768;9.600;2024-01-30T10:52:34;5.20;;;2.58;;
80623;SDS011;70269;44.768;9.600;2024-01-30T10:55:00;5.25;;;2.22;;
80623;SDS011;70269;44.768;9.600;2024-01-30T10:57:26;6.30;;;2.63;;
80623;SDS011;70269;44.768;9.600;2024-01-30T10:59:53;6.18;;;2.42;;
80623;SDS011;70269;44.768;9.600;2024-01-30T11:02:22;4.15;;;2.25;;
80623;SDS011;70269;44.768;9.600;2024-01-30T11:04:49;5.00;;;2.28;;
80623;SDS011;70269;44.768;9.600;2024-01-30T11:07:24;3.15;;;1.98;;
80623;SDS011;70269;44.768;9.600;2024-01-30T11:09:52;5.85;;;2.92;;
80623;SDS011;70269;44.768;9.600;2024-01-30T11:12:22;5.40;;;2.60;;
80623;SDS011;70269;44.768;9.600;2024-01-30T11:14:49;6.50;;;2.50;;
80623;SDS011;70269;44.768;9.600;2024-01-30T11:17:15;5.32;;;2.53;;
80623;SDS011;70269;44.768;9.600;2024-01-30T11:19:41;5.28;;;2.85;;
80623;SDS011;70269;44.768;9.600;2024-01-30T11:22:07;6.82;;;2.67;;
80623;SDS011;70269;44.768;9.600;2024-01-30T11:24:40;5.30;;;3.13;;
80623;SDS011;70269;44.768;9.600;2024-01-30T11:27:09;7.18;;;3.22;;
80623;SDS011;70269;44.768;9.600;2024-01-30T11:29:37;6.30;;;2.67;;
80623;SDS011;70269;44.768;9.600;2024-01-30T11:32:05;10.65;;;3.28;;
80623;SDS011;70269;44.768;9.600;2024-01-30T11:34:32;9.13;;;3.25;;
80623;SDS011;70269;44.768;9.600;2024-01-30T11:37:02;7.03;;;3.30;;
80623;SDS011;70269;44.768;9.600;2024-01-30T11:39:34;5.65;;;3.25;;
80623;SDS011;70269;44.768;9.600;2024-01-30T11:42:01;11.40;;;5.55;;
80623;SDS011;70269;44.768;9.600;2024-01-30T11:44:30;10.23;;;4.70;;
80623;SDS011;70269;44.768;9.600;2024-01-30T11:46:56;10.55;;;4.60;;
80623;SDS011;70269;44.768;9.600;2024-01-30T11:49:22;10.35;;;4.63;;
80623;SDS011;70269;44.768;9.600;2024-01-30T11:51:48;11.35;;;5.13;;
80623;SDS011;70269;44.768;9.600;2024-01-30T11:54:14;9.52;;;4.38;;
80623;SDS011;70269;44.768;9.600;2024-01-30T11:56:41;8.57;;;5.25;;
80623;SDS011;70269;44.768;9.600;2024-01-30T11:59:07;10.77;;;5.70;;
80623;SDS011;70269;44.768;9.600;2024-01-30T12:01:33;9.98;;;3.90;;
80623;SDS011;70269;44.768;9.600;2024-01-30T12:03:59;8.48;;;4.50;;
80623;SDS011;70269;44.768;9.600;2024-01-30T12:06:24;12.65;;;5.00;;
80623;SDS011;70269;44.768;9.600;2024-01-30T12:09:00;14.65;;;6.88;;
80623;SDS011;70269;44.768;9.600;2024-01-30T12:11:29;11.32;;;4.97;;
80623;SDS011;70269;44.768;9.600;2024-01-30T12:13:55;15.38;;;5.70;;
80623;SDS011;70269;44.768;9.600;2024-01-30T12:16:21;11.48;;;6.28;;
80623;SDS011;70269;44.768;9.600;2024-01-30T12:18:47;10.50;;;5.38;;
80623;SDS011;70269;44.768;9.600;2024-01-30T12:21:16;8.27;;;3.75;;
80623;SDS011;70269;44.768;9.600;2024-01-30T12:23:42;12.52;;;5.15;;
80623;SDS011;70269;44.768;9.600;2024-01-30T12:26:08;12.02;;;5.72;;
80623;SDS011;70269;44.768;9.600;2024-01-30T12:28:33;17.65;;;6.30;;
80623;SDS011;70269;44.768;9.600;2024-01-30T12:31:05;13.88;;;5.25;;
80623;SDS011;70269;44.768;9.600;2024-01-30T12:33:30;16.05;;;6.18;;
80623;SDS011;70269;44.768;9.600;2024-01-30T12:35:57;13.32;;;6.50;;
80623;SDS011;70269;44.768;9.600;2024-01-30T12:38:26;11.45;;;5.03;;
80623;SDS011;70269;44.768;9.600;2024-01-30T12:40:55;14.05;;;6.60;;
80623;SDS011;70269;44.768;9.600;2024-01-30T12:43:21;13.88;;;6.43;;
80623;SDS011;70269;44.768;9.600;2024-01-30T12:45:49;14.35;;;6.75;;
80623;SDS011;70269;44.768;9.600;2024-01-30T12:48:15;10.10;;;4.93;;
80623;SDS011;70269;44.768;9.600;2024-01-30T12:50:41;13.18;;;6.10;;
80623;SDS011;70269;44.768;9.600;2024-01-30T12:53:06;13.93;;;6.07;;
80623;SDS011;70269;44.768;9.600;2024-01-30T12:55:34;14.10;;;5.85;;
80623;SDS011;70269;44.768;9.600;2024-01-30T12:58:00;13.70;;;6.72;;
80623;SDS011;70269;44.768;9.600;2024-01-30T13:00:25;10.65;;;6.10;;
80623;SDS011;70269;44.768;9.600;2024-01-30T13:02:51;12.52;;;5.78;;
80623;SDS011;70269;44.768;9.600;2024-01-30T13:05:16;8.65;;;4.50;;
80623;SDS011;70269;44.768;9.600;2024-01-30T13:07:42;8.50;;;4.57;;
80623;SDS011;70269;44.768;9.600;2024-01-30T13:10:08;13.68;;;6.22;;
80623;SDS011;70269;44.768;9.600;2024-01-30T13:12:34;11.38;;;5.25;;
80623;SDS011;70269;44.768;9.600;2024-01-30T13:15:00;15.57;;;5.57;;
80623;SDS011;70269;44.768;9.600;2024-01-30T13:17:26;10.65;;;4.85;;
80623;SDS011;70269;44.768;9.600;2024-01-30T13:19:52;12.43;;;5.80;;
80623;SDS011;70269;44.768;9.600;2024-01-30T13:22:19;13.80;;;5.45;;
80623;SDS011;70269;44.768;9.600;2024-01-30T13:24:46;14.85;;;6.20;;
80623;SDS011;70269;44.768;9.600;2024-01-30T13:27:12;14.13;;;5.75;;
80623;SDS011;70269;44.768;9.600;2024-01-30T13:29:39;10.45;;;5.45;;
80623;SDS011;70269;44.768;9.600;2024-01-30T13:32:04;15.13;;;5.70;;
80623;SDS011;70269;44.768;9.600;2024-01-30T13:34:30;8.48;;;4.32;;
80623;SDS011;70269;44.768;9.600;2024-01-30T13:36:56;10.85;;;5.85;;
80623;SDS011;70269;44.768;9.600;2024-01-30T13:39:22;10.77;;;5.28;;
80623;SDS011;70269;44.768;9.600;2024-01-30T13:41:48;9.65;;;5.38;;
80623;SDS011;70269;44.768;9.600;2024-01-30T13:44:15;20.77;;;6.63;;
80623;SDS011;70269;44.768;9.600;2024-01-30T13:46:43;12.30;;;5.60;;
80623;SDS011;70269;44.768;9.600;2024-01-30T13:49:09;16.50;;;5.88;;
80623;SDS011;70269;44.768;9.600;2024-01-30T13:51:34;13.90;;;5.07;;
80623;SDS011;70269;44.768;9.600;2024-01-30T13:54:00;10.57;;;5.13;;
80623;SDS011;70269;44.768;9.600;2024-01-30T13:56:26;14.05;;;6.57;;
80623;SDS011;70269;44.768;9.600;2024-01-30T13:58:52;15.07;;;6.68;;
80623;SDS011;70269;44.768;9.600;2024-01-30T14:01:18;11.90;;;6.28;;
80623;SDS011;70269;44.768;9.600;2024-01-30T14:03:44;16.50;;;6.40;;
80623;SDS011;70269;44.768;9.600;2024-01-30T14:06:10;10.70;;;6.70;;
80623;SDS011;70269;44.768;9.600;2024-01-30T14:08:36;13.93;;;6.93;;
80623;SDS011;70269;44.768;9.600;2024-01-30T14:11:03;9.70;;;4.95;;
80623;SDS011;70269;44.768;9.600;2024-01-30T14:13:28;11.93;;;5.65;;
80623;SDS011;70269;44.768;9.600;2024-01-30T14:15:56;15.75;;;5.65;;
80623;SDS011;70269;44.768;9.600;2024-01-30T14:18:22;14.00;;;6.13;;
80623;SDS011;70269;44.768;9.600;2024-01-30T14:20:47;14.60;;;6.57;;
80623;SDS011;70269;44.768;9.600;2024-01-30T14:23:13;12.38;;;6.18;;
80623;SDS011;70269;44.768;9.600;2024-01-30T14:25:40;12.32;;;6.53;;
80623;SDS011;70269;44.768;9.600;2024-01-30T14:28:05;13.43;;;5.78;;
80623;SDS011;70269;44.768;9.600;2024-01-30T14:30:31;10.82;;;5.43;;
80623;SDS011;70269;44.768;9.600;2024-01-30T14:32:57;12.27;;;5.40;;
80623;SDS011;70269;44.768;9.600;2024-01-30T14:35:23;13.25;;;4.97;;
80623;SDS011;70269;44.768;9.600;2024-01-30T14:37:49;11.85;;;5.75;;
80623;SDS011;70269;44.768;9.600;2024-01-30T14:40:15;10.90;;;5.22;;
80623;SDS011;70269;44.768;9.600;2024-01-30T14:42:41;15.57;;;6.85;;
80623;SDS011;70269;44.768;9.600;2024-01-30T14:45:07;15.55;;;6.68;;
80623;SDS011;70269;44.768;9.600;2024-01-30T14:47:33;17.80;;;6.68;;
80623;SDS011;70269;44.768;9.600;2024-01-30T14:50:02;16.92;;;7.25;;
80623;SDS011;70269;44.768;9.600;2024-01-30T14:52:29;15.68;;;7.78;;
80623;SDS011;70269;44.768;9.600;2024-01-30T14:54:55;16.65;;;7.47;;
80623;SDS011;70269;44.768;9.600;2024-01-30T14:57:20;17.35;;;7.45;;
80623;SDS011;70269;44.768;9.600;2024-01-30T14:59:46;21.48;;;7.82;;
80623;SDS011;70269;44.768;9.600;2024-01-30T15:02:13;16.90;;;7.85;;
80623;SDS011;70269;44.768;9.600;2024-01-30T15:04:40;16.25;;;6.72;;
80623;SDS011;70269;44.768;9.600;2024-01-30T15:07:05;15.98;;;7.13;;